createdAt,value
2023-01-21T00:01:12.005Z,14.80
2023-01-21T00:03:39.677Z,13.77
2023-01-21T00:06:07.089Z,14.68
2023-01-21T00:08:35.669Z,13.55
2023-01-21T00:11:15.729Z,12.63
2023-01-21T00:13:45.083Z,11.68
2023-01-21T00:16:13.618Z,13.90
2023-01-21T00:18:41.735Z,14.02
2023-01-21T00:21:09.159Z,17.30
2023-01-21T00:23:36.818Z,10.98
2023-01-21T00:26:06.107Z,11.35
2023-01-21T00:28:35.319Z,15.85
2023-01-21T00:31:04.894Z,18.00
2023-01-21T00:33:33.591Z,14.70
2023-01-21T00:36:03.661Z,13.10
2023-01-21T00:38:31.322Z,14.65
2023-01-21T00:41:07.297Z,17.17
2023-01-21T00:43:34.937Z,16.80
2023-01-21T00:46:02.311Z,14.02
2023-01-21T00:48:29.649Z,13.32
2023-01-21T00:51:01.009Z,10.52
2023-01-21T00:53:31.596Z,14.43
2023-01-21T00:56:04.220Z,12.32
2023-01-21T00:58:31.987Z,15.32
2023-01-21T01:01:04.726Z,12.13
2023-01-21T01:03:32.868Z,13.00
2023-01-21T01:06:15.411Z,12.32
2023-01-21T01:08:43.882Z,11.45
2023-01-21T01:11:12.518Z,12.07
2023-01-21T01:13:40.377Z,14.70
2023-01-21T01:16:08.168Z,12.43
2023-01-21T01:18:36.858Z,11.75
2023-01-21T01:21:05.431Z,16.98
2023-01-21T01:23:33.027Z,12.13
2023-01-21T01:26:12.529Z,12.57
2023-01-21T01:28:40.971Z,10.05
2023-01-21T01:31:11.534Z,11.20
2023-01-21T01:33:43.357Z,11.52
2023-01-21T01:36:18.405Z,8.73
2023-01-21T01:38:49.724Z,11.98
2023-01-21T01:41:21.038Z,12.85
2023-01-21T01:43:56.462Z,11.27
2023-01-21T01:46:25.447Z,15.13
2023-01-21T01:51:29.625Z,15.75
2023-01-21T01:53:56.977Z,9.95
2023-01-21T01:56:24.006Z,10.50
2023-01-21T01:58:53.428Z,12.23
2023-01-21T02:01:20.769Z,12.50
2023-01-21T02:03:56.963Z,13.13
2023-01-21T02:06:28.272Z,9.90
2023-01-21T02:08:56.961Z,12.13
2023-01-21T02:11:31.351Z,10.32
2023-01-21T02:14:00.558Z,13.18
2023-01-21T02:16:30.434Z,15.98
2023-01-21T02:19:19.402Z,14.57
2023-01-21T02:22:12.158Z,11.15
2023-01-21T02:25:16.528Z,11.48
2023-01-21T02:28:21.308Z,14.70
2023-01-21T02:31:07.169Z,11.75
2023-01-21T02:33:43.217Z,13.55
2023-01-21T02:36:23.222Z,13.52
2023-01-21T02:39:09.232Z,11.20
2023-01-21T02:42:01.575Z,11.85
2023-01-21T02:45:09.144Z,13.45
2023-01-21T02:50:19.748Z,13.02
2023-01-21T02:52:58.541Z,14.68
2023-01-21T02:55:38.742Z,10.65
2023-01-21T02:58:11.603Z,13.82
2023-01-21T03:01:03.566Z,12.57
2023-01-21T03:03:41.417Z,13.20
2023-01-21T03:06:18.807Z,13.23
2023-01-21T03:08:52.723Z,11.98
2023-01-21T03:11:22.427Z,11.90
2023-01-21T03:14:11.369Z,9.80
2023-01-21T03:16:57.110Z,13.48
2023-01-21T03:19:32.549Z,11.25
2023-01-21T03:22:04.750Z,11.70
2023-01-21T03:24:34.618Z,14.50
2023-01-21T03:27:06.488Z,14.25
2023-01-21T03:29:35.452Z,13.27
2023-01-21T03:32:06.515Z,11.75
2023-01-21T03:34:42.410Z,15.55
2023-01-21T03:37:34.030Z,10.57
2023-01-21T03:40:19.503Z,12.30
2023-01-21T03:42:50.990Z,14.38
2023-01-21T03:45:36.624Z,12.85
2023-01-21T03:48:18.252Z,12.05
2023-01-21T03:50:52.903Z,14.77
2023-01-21T03:53:20.273Z,11.30
2023-01-21T03:55:50.531Z,14.38
2023-01-21T03:58:18.178Z,11.73
2023-01-21T04:00:48.855Z,14.98
2023-01-21T04:03:16.359Z,18.33
2023-01-21T04:05:44.200Z,11.38
2023-01-21T04:08:12.297Z,10.40
2023-01-21T04:10:40.131Z,13.25
2023-01-21T04:13:07.164Z,13.95
2023-01-21T04:15:35.283Z,12.02
2023-01-21T04:18:03.563Z,12.82
2023-01-21T04:20:35.333Z,13.73
2023-01-21T04:23:05.271Z,9.07
2023-01-21T04:28:01.932Z,11.40
2023-01-21T04:30:30.596Z,10.73
2023-01-21T04:33:01.987Z,12.35
2023-01-21T04:35:29.432Z,13.65
2023-01-21T04:37:56.640Z,15.40
2023-01-21T04:40:25.213Z,12.90
2023-01-21T04:42:52.308Z,10.43
2023-01-21T04:45:20.092Z,13.55
2023-01-21T04:47:48.631Z,13.85
2023-01-21T04:50:16.980Z,10.18
2023-01-21T04:52:48.704Z,9.43
2023-01-21T04:55:19.645Z,15.60
2023-01-21T04:57:47.045Z,12.23
2023-01-21T05:00:15.389Z,10.63
2023-01-21T05:02:42.712Z,10.10
2023-01-21T05:05:10.560Z,17.75
2023-01-21T05:07:38.368Z,11.23
2023-01-21T05:10:06.105Z,12.02
2023-01-21T05:12:35.205Z,13.90
2023-01-21T05:18:05.250Z,13.07
2023-01-21T05:20:32.867Z,15.88
2023-01-21T05:23:00.005Z,14.57
2023-01-21T05:25:28.025Z,15.80
2023-01-21T05:27:56.234Z,10.38
2023-01-21T05:30:24.063Z,12.73
2023-01-21T05:32:56.922Z,14.57
2023-01-21T05:35:27.742Z,11.30
2023-01-21T05:37:55.524Z,7.97
2023-01-21T05:40:23.935Z,11.13
2023-01-21T05:42:51.007Z,8.07
2023-01-21T05:45:19.123Z,7.95
2023-01-21T05:47:46.169Z,8.07
2023-01-21T05:50:14.036Z,7.40
2023-01-21T05:55:24.759Z,5.20
2023-01-21T05:57:51.931Z,5.50
2023-01-21T06:00:20.072Z,4.78
2023-01-21T06:02:47.581Z,4.47
2023-01-21T06:05:15.749Z,4.57
2023-01-21T06:07:45.410Z,4.80
2023-01-21T06:10:13.089Z,5.40
2023-01-21T06:12:40.263Z,4.65
2023-01-21T06:15:08.091Z,5.03
2023-01-21T06:18:06.773Z,5.63
2023-01-21T06:23:44.395Z,5.68
2023-01-21T06:26:16.366Z,6.53
2023-01-21T06:31:32.716Z,6.88
2023-01-21T06:33:59.848Z,6.90
2023-01-21T06:36:27.480Z,6.57
2023-01-21T06:38:54.583Z,7.45
2023-01-21T06:41:23.087Z,6.85
2023-01-21T06:43:50.173Z,7.65
2023-01-21T06:46:19.737Z,7.13
2023-01-21T06:48:47.004Z,8.57
2023-01-21T06:51:14.921Z,6.95
2023-01-21T06:53:42.513Z,7.88
2023-01-21T06:56:22.209Z,8.55
2023-01-21T06:58:52.314Z,8.25
2023-01-21T07:01:20.591Z,6.85
2023-01-21T07:03:50.132Z,5.43
2023-01-21T07:06:17.642Z,6.82
2023-01-21T07:08:44.687Z,5.90
2023-01-21T07:11:13.472Z,6.32
2023-01-21T07:13:41.102Z,7.32
2023-01-21T07:16:09.364Z,7.35
2023-01-21T07:18:38.037Z,8.40
2023-01-21T07:21:07.217Z,7.22
2023-01-21T07:23:34.246Z,7.53
2023-01-21T07:26:05.172Z,7.70
2023-01-21T07:28:33.182Z,7.15
2023-01-21T07:31:02.232Z,7.85
2023-01-21T07:33:30.435Z,5.22
2023-01-21T07:35:57.972Z,7.40
2023-01-21T07:38:25.506Z,7.10
2023-01-21T07:40:53.168Z,9.23
2023-01-21T07:43:20.513Z,8.25
2023-01-21T07:45:48.621Z,8.98
2023-01-21T07:48:18.579Z,6.93
2023-01-21T07:50:56.691Z,8.25
2023-01-21T07:53:28.841Z,8.35
2023-01-21T07:58:52.099Z,6.82
2023-01-21T08:01:31.755Z,7.40
2023-01-21T08:04:00.173Z,8.25
2023-01-21T08:06:34.240Z,9.38
2023-01-21T08:09:20.203Z,8.57
2023-01-21T08:14:55.222Z,8.32
2023-01-21T08:17:36.383Z,10.98
2023-01-21T08:20:06.169Z,8.88
2023-01-21T08:22:50.803Z,8.38
2023-01-21T08:25:19.476Z,5.85
2023-01-21T08:27:47.525Z,8.45
2023-01-21T08:30:17.743Z,9.25
2023-01-21T08:32:46.833Z,9.30
2023-01-21T08:35:14.199Z,7.43
2023-01-21T08:37:44.016Z,9.07
2023-01-21T08:40:14.270Z,9.88
2023-01-21T08:42:51.548Z,8.77
2023-01-21T08:45:32.156Z,7.15
2023-01-21T08:48:05.922Z,9.95
2023-01-21T08:51:01.496Z,8.60
2023-01-21T08:53:29.920Z,8.88
2023-01-21T08:56:01.774Z,9.07
2023-01-21T08:58:30.767Z,8.45
2023-01-21T09:00:58.735Z,8.13
2023-01-21T09:03:26.259Z,9.20
2023-01-21T09:05:55.291Z,8.38
2023-01-21T09:08:25.392Z,8.57
2023-01-21T09:11:01.231Z,8.73
2023-01-21T09:13:34.277Z,8.10
2023-01-21T09:16:01.951Z,9.10
2023-01-21T09:18:29.412Z,9.15
2023-01-21T09:21:01.907Z,8.73
2023-01-21T09:23:34.854Z,8.70
2023-01-21T09:26:10.377Z,9.00
2023-01-21T09:28:51.021Z,8.65
2023-01-21T09:31:21.776Z,8.27
2023-01-21T09:36:45.669Z,8.55
2023-01-21T09:42:05.392Z,9.40
2023-01-21T09:44:45.141Z,7.97
2023-01-21T09:47:23.016Z,6.90
2023-01-21T09:50:10.460Z,8.35
2023-01-21T09:52:40.569Z,7.97
2023-01-21T09:55:28.612Z,7.28
2023-01-21T09:58:17.831Z,8.07
2023-01-21T10:01:39.357Z,8.10
2023-01-21T10:04:32.549Z,8.55
2023-01-21T10:07:07.688Z,8.57
2023-01-21T10:09:45.376Z,8.65
2023-01-21T10:12:24.765Z,7.82
2023-01-21T10:15:30.427Z,7.43
2023-01-21T10:18:07.008Z,8.73
2023-01-21T10:20:58.964Z,7.47
2023-01-21T10:23:46.143Z,6.57
2023-01-21T10:29:01.840Z,7.05
2023-01-21T10:31:40.652Z,7.18
2023-01-21T10:34:14.984Z,6.95
2023-01-21T10:37:10.552Z,6.38
2023-01-21T10:39:52.228Z,7.38
2023-01-21T10:42:49.814Z,4.97
2023-01-21T10:45:50.806Z,7.75
2023-01-21T10:51:40.772Z,7.03
2023-01-21T10:54:58.331Z,8.60
2023-01-21T10:57:47.956Z,7.00
2023-01-21T11:00:23.206Z,6.63
2023-01-21T11:02:56.537Z,7.95
2023-01-21T11:05:50.060Z,7.13
2023-01-21T11:08:23.888Z,6.57
2023-01-21T11:10:55.792Z,6.90
2023-01-21T11:13:24.379Z,6.43
2023-01-21T11:15:56.717Z,6.82
2023-01-21T11:18:42.197Z,6.80
2023-01-21T11:21:24.746Z,6.25
2023-01-21T11:23:55.307Z,6.35
2023-01-21T11:26:32.982Z,5.55
2023-01-21T11:29:17.080Z,6.10
2023-01-21T11:32:22.493Z,6.22
2023-01-21T11:35:02.044Z,5.78
2023-01-21T11:37:31.504Z,5.80
2023-01-21T11:40:01.917Z,5.95
2023-01-21T11:42:36.092Z,5.60
2023-01-21T11:45:33.926Z,7.40
2023-01-21T11:48:14.823Z,6.57
2023-01-21T11:50:42.420Z,6.30
2023-01-21T11:53:19.325Z,3.72
2023-01-21T11:55:55.265Z,4.50
2023-01-21T11:58:32.713Z,5.78
2023-01-21T12:01:08.076Z,5.05
2023-01-21T12:03:42.994Z,6.72
2023-01-21T12:06:19.925Z,6.15
2023-01-21T12:08:51.418Z,6.22
2023-01-21T12:11:24.923Z,5.85
2023-01-21T12:14:13.385Z,5.40
2023-01-21T12:16:59.419Z,6.75
2023-01-21T12:19:47.398Z,6.13
2023-01-21T12:22:33.822Z,5.65
2023-01-21T12:25:17.181Z,7.57
2023-01-21T12:27:57.060Z,5.50
2023-01-21T12:30:32.678Z,6.90
2023-01-21T12:33:39.133Z,5.47
2023-01-21T12:36:18.814Z,6.03
2023-01-21T12:42:31.778Z,5.28
2023-01-21T12:45:11.732Z,5.05
2023-01-21T12:47:48.603Z,4.75
2023-01-21T12:50:44.177Z,4.50
2023-01-21T12:56:44.020Z,5.70
2023-01-21T12:59:40.768Z,5.25
2023-01-21T13:02:26.837Z,4.53
2023-01-21T13:05:04.188Z,5.07
2023-01-21T13:07:48.958Z,5.07
2023-01-21T13:10:38.312Z,5.10
2023-01-21T13:13:16.669Z,6.00
2023-01-21T13:15:48.336Z,5.85
2023-01-21T13:18:29.998Z,5.05
2023-01-21T13:21:18.767Z,5.38
2023-01-21T13:24:21.644Z,4.82
2023-01-21T13:27:33.788Z,5.78
2023-01-21T13:30:24.712Z,5.10
2023-01-21T13:33:14.112Z,4.78
2023-01-21T13:36:18.400Z,4.50
2023-01-21T13:39:06.711Z,4.72
2023-01-21T13:41:42.082Z,4.53
2023-01-21T13:47:48.978Z,6.05
2023-01-21T13:54:52.771Z,3.63
2023-01-21T13:58:26.717Z,4.22
2023-01-21T14:01:18.288Z,5.10
2023-01-21T14:04:18.727Z,4.78
2023-01-21T14:07:11.065Z,4.60
2023-01-21T14:13:08.057Z,5.55
2023-01-21T14:25:29.987Z,5.57
2023-01-21T14:28:31.066Z,5.15
2023-01-21T14:31:18.629Z,5.28
2023-01-21T14:33:55.846Z,5.78
2023-01-21T14:36:38.779Z,5.00
2023-01-21T14:39:31.915Z,7.38
2023-01-21T16:12:20.094Z,5.35
2023-01-21T16:15:18.642Z,6.53
2023-01-21T16:17:49.222Z,5.28
2023-01-21T16:28:57.903Z,6.82
2023-01-21T16:31:29.599Z,5.22
2023-01-21T16:34:20.666Z,5.88
2023-01-21T16:36:53.065Z,5.10
2023-01-21T16:39:20.423Z,6.70
2023-01-21T16:44:44.117Z,6.45
2023-01-21T16:47:46.288Z,6.80
2023-01-21T16:50:29.669Z,6.50
2023-01-21T16:53:15.277Z,5.45
2023-01-21T16:58:44.325Z,6.28
2023-01-21T17:09:44.153Z,6.50
2023-01-21T17:15:22.601Z,5.30
2023-01-21T17:17:50.063Z,5.97
2023-01-21T17:20:50.840Z,7.38
2023-01-21T17:23:35.742Z,6.03
2023-01-21T17:26:20.333Z,6.90
2023-01-21T17:29:00.991Z,5.80
2023-01-21T17:31:46.323Z,5.90
2023-01-21T17:34:17.403Z,5.20
2023-01-21T17:37:00.105Z,5.55
2023-01-21T17:42:42.893Z,5.82
2023-01-21T17:45:32.183Z,6.03
2023-01-21T17:48:10.175Z,5.50
2023-01-21T17:50:53.549Z,5.18
2023-01-21T17:53:29.865Z,5.68
2023-01-21T17:59:50.337Z,6.10
2023-01-21T18:02:28.801Z,5.18
2023-01-21T18:05:02.377Z,5.60
2023-01-21T18:13:21.689Z,5.18
2023-01-21T18:15:54.412Z,5.05
2023-01-21T18:18:33.306Z,5.22
2023-01-21T18:26:45.261Z,4.90
2023-01-21T18:29:12.367Z,5.43
2023-01-21T18:37:04.099Z,5.78
2023-01-21T18:42:17.951Z,6.65
2023-01-21T18:47:41.977Z,6.05
2023-01-21T18:50:34.037Z,6.28
2023-01-21T18:53:01.689Z,5.88
2023-01-21T18:55:33.145Z,7.07
2023-01-21T18:58:06.868Z,6.63
2023-01-21T19:00:34.193Z,7.00
2023-01-21T19:03:06.112Z,6.43
2023-01-21T19:05:36.024Z,5.60
2023-01-21T19:08:06.311Z,6.10
2023-01-21T19:13:19.955Z,4.75
2023-01-21T19:15:49.159Z,4.70
2023-01-21T19:18:20.873Z,5.53
2023-01-21T19:20:51.204Z,6.50
2023-01-21T19:23:19.444Z,5.90
2023-01-21T19:25:54.332Z,5.93
2023-01-21T19:28:24.550Z,6.18
2023-01-21T19:31:03.834Z,6.10
2023-01-21T19:33:32.365Z,6.75
2023-01-21T19:36:11.881Z,5.68
2023-01-21T19:39:07.757Z,5.75
2023-01-21T19:41:37.397Z,5.00
2023-01-21T19:44:05.524Z,5.63
2023-01-21T19:46:33.076Z,6.50
2023-01-21T19:49:14.007Z,4.63
2023-01-21T19:51:41.291Z,6.78
2023-01-21T19:54:09.200Z,6.15
2023-01-21T19:56:37.588Z,6.15
2023-01-21T19:59:19.945Z,8.85
2023-01-21T20:04:19.022Z,6.63
2023-01-21T20:06:54.464Z,6.53
2023-01-21T20:09:23.501Z,5.78
2023-01-21T20:11:53.811Z,6.60
2023-01-21T20:14:23.948Z,7.38
2023-01-21T20:16:54.402Z,5.97
2023-01-21T20:19:22.890Z,5.30
2023-01-21T20:22:02.200Z,6.15
2023-01-21T20:24:49.162Z,6.38
2023-01-21T20:27:30.739Z,6.43
2023-01-21T20:30:15.724Z,6.25
2023-01-21T20:32:49.196Z,5.97
2023-01-21T20:35:18.085Z,7.00
2023-01-21T20:37:52.520Z,6.60
2023-01-21T20:40:27.733Z,7.68
2023-01-21T20:42:57.060Z,7.10
2023-01-21T20:45:30.223Z,6.63
2023-01-21T20:48:03.084Z,7.28
2023-01-21T20:50:36.802Z,7.32
2023-01-21T20:53:05.360Z,6.10
2023-01-21T20:55:32.700Z,6.82
2023-01-21T20:58:00.227Z,7.60
2023-01-21T21:00:32.362Z,8.70
2023-01-21T21:03:04.247Z,7.82
2023-01-21T21:05:31.937Z,7.00
2023-01-21T21:08:05.402Z,8.18
2023-01-21T21:10:36.932Z,7.63
2023-01-21T21:13:04.972Z,7.93
2023-01-21T21:15:34.834Z,8.10
2023-01-21T21:18:06.043Z,8.10
2023-01-21T21:20:35.997Z,9.85
2023-01-21T21:23:05.329Z,9.90
2023-01-21T21:25:38.840Z,9.85
2023-01-21T21:28:18.051Z,7.18
2023-01-21T21:30:45.590Z,7.40
2023-01-21T21:33:19.438Z,8.63
2023-01-21T21:35:48.167Z,8.60
2023-01-21T21:38:27.826Z,7.13
2023-01-21T21:41:17.939Z,7.40
2023-01-21T21:43:46.834Z,7.90
2023-01-21T21:49:14.650Z,8.75
2023-01-21T21:51:44.023Z,8.75
2023-01-21T21:54:24.175Z,9.63
2023-01-21T21:56:54.629Z,14.88
2023-01-21T21:59:24.335Z,19.88
2023-01-21T22:01:56.718Z,16.35
2023-01-21T22:04:49.770Z,13.38
2023-01-21T22:07:17.215Z,15.38
2023-01-21T22:09:44.906Z,20.48
2023-01-21T22:12:12.003Z,13.98
2023-01-21T22:14:40.043Z,19.55
2023-01-21T22:17:08.744Z,20.35
2023-01-21T22:19:39.980Z,20.30
2023-01-21T22:22:07.388Z,14.88
2023-01-21T22:24:35.744Z,16.58
2023-01-21T22:27:02.892Z,11.95
2023-01-21T22:29:30.225Z,12.60
2023-01-21T22:31:58.440Z,12.02
2023-01-21T22:34:28.933Z,13.00
2023-01-21T22:36:56.065Z,9.68
2023-01-21T22:39:23.611Z,10.30
2023-01-21T22:41:51.163Z,9.65
2023-01-21T22:44:18.858Z,8.65
2023-01-21T22:46:46.052Z,8.65
2023-01-21T22:49:13.713Z,9.27
2023-01-21T22:51:42.732Z,5.38
2023-01-21T22:54:14.644Z,7.57
2023-01-21T22:56:52.644Z,6.95
2023-01-21T22:59:20.780Z,8.70
2023-01-21T23:01:49.052Z,7.20
2023-01-21T23:04:18.039Z,9.95
2023-01-21T23:09:31.596Z,10.35
2023-01-21T23:11:58.827Z,8.77
2023-01-21T23:14:28.899Z,9.88
2023-01-21T23:16:55.971Z,7.30
2023-01-21T23:19:23.470Z,8.18
2023-01-21T23:21:50.542Z,9.50
2023-01-21T23:24:18.395Z,8.32
2023-01-21T23:26:45.386Z,8.18
2023-01-21T23:29:13.035Z,10.63
2023-01-21T23:31:40.354Z,5.53
2023-01-21T23:34:07.839Z,6.90
2023-01-21T23:36:34.909Z,7.05
2023-01-21T23:39:02.232Z,8.10
2023-01-21T23:41:30.289Z,8.82
2023-01-21T23:44:01.925Z,8.82
2023-01-21T23:46:29.556Z,8.77
2023-01-21T23:48:58.029Z,8.20
2023-01-21T23:51:25.616Z,10.00
2023-01-21T23:53:53.108Z,6.57
2023-01-21T23:56:23.034Z,6.43
2023-01-21T23:58:51.172Z,5.53
